Time;durP1;ratioP1;P1;durP2;ratioP2;P2;SDS_P1;SDS_P2;PMS_P1;PMS_P2;Temp;Humidity;BMP_temperature;BMP_pressure;BME280_temperature;BME280_humidity;BME280_pressure;Samples;Min_cycle;Max_cycle;Signal;HPM_P1;HPM_P2
2023/08/17 00:02:14;;;;;;;;;;;15.50;75.60;;;;;;5078533;28;19912;-85
2023/08/17 00:04:40;;;;;;;;;;;15.50;75.60;;;;;;5080709;28;19934;-84
2023/08/17 00:07:05;;;;;;;;;;;15.50;75.60;;;;;;5098540;28;19916;-84
2023/08/17 00:09:31;;;;;;;;;;;15.50;75.60;;;;;;5080764;28;19953;-84
2023/08/17 00:11:57;;;;;;;;;;;15.50;75.70;;;;;;5097356;28;19962;-85
2023/08/17 00:14:23;;;;;;;;;;;15.50;75.70;;;;;;5093608;28;19961;-86
2023/08/17 00:16:51;;;;;;;;;;;15.40;75.70;;;;;;5076453;28;19912;-84
2023/08/17 00:19:17;;;;;;;;;;;15.40;75.70;;;;;;5077672;28;19935;-84
2023/08/17 00:21:44;;;;;;;;;;;15.30;75.80;;;;;;5079268;28;19908;-85
2023/08/17 00:24:09;;;;;;;;;;;15.30;75.80;;;;;;5080879;28;19896;-84
2023/08/17 00:26:35;;;;;;;;;;;15.20;75.80;;;;;;5098731;28;20446;-84
2023/08/17 00:29:00;;;;;;;;;;;15.20;75.90;;;;;;5078257;28;19916;-84
2023/08/17 00:31:26;;;;;;;;;;;15.20;75.90;;;;;;5091145;28;19923;-85
2023/08/17 00:33:51;;;;;;;;;;;15.20;75.90;;;;;;5072462;28;19920;-84
2023/08/17 00:36:17;;;;;;;;;;;15.10;75.90;;;;;;5072126;28;20294;-84
2023/08/17 00:38:42;;;;;;;;;;;15.10;75.90;;;;;;5073502;28;19917;-84
2023/08/17 00:41:08;;;;;;;;;;;15.10;75.90;;;;;;5075523;28;19923;-85
2023/08/17 00:43:33;;;;;;;;;;;15.10;75.90;;;;;;5100425;28;19984;-84
2023/08/17 00:45:59;;;;;;;;;;;15.10;75.90;;;;;;5085820;28;19896;-84
2023/08/17 00:48:25;;;;;;;;;;;15.10;75.90;;;;;;5092169;28;19920;-84
2023/08/17 00:50:52;;;;;;;;;;;15.10;75.90;;;;;;5089660;28;19920;-84
2023/08/17 00:53:18;;;;;;;;;;;15.10;75.90;;;;;;5093339;28;20426;-84
2023/08/17 00:55:44;;;;;;;;;;;15.10;75.90;;;;;;5085996;28;19966;-84
2023/08/17 00:58:09;;;;;;;;;;;15.10;75.80;;;;;;5091435;28;19931;-84
2023/08/17 01:00:35;;;;;;;;;;;15.00;75.80;;;;;;5085188;28;19912;-84
2023/08/17 01:03:01;;;;;;;;;;;15.10;75.90;;;;;;5094459;28;20307;-84
2023/08/17 01:05:26;;;;;;;;;;;15.10;75.90;;;;;;5095490;28;19921;-84
2023/08/17 01:07:52;;;;;;;;;;;15.10;75.80;;;;;;5076798;28;19919;-84
2023/08/17 01:10:18;;;;;;;;;;;15.10;75.80;;;;;;5074812;28;19955;-84
2023/08/17 01:13:00;;;;;;;;;;;15.10;75.80;;;;;;5075901;28;19913;-85
2023/08/17 01:15:37;;;;;;;;;;;15.10;75.80;;;;;;5076259;28;19976;-84
2023/08/17 01:18:16;;;;;;;;;;;15.10;75.80;;;;;;5074561;28;19920;-84
2023/08/17 01:20:43;;;;;;;;;;;15.10;75.80;;;;;;5073802;28;19916;-84
2023/08/17 01:23:09;;;;;;;;;;;15.10;75.80;;;;;;5074880;28;19908;-84
2023/08/17 01:25:36;;;;;;;;;;;15.00;75.70;;;;;;5074697;28;19931;-84
2023/08/17 01:28:02;;;;;;;;;;;15.10;75.80;;;;;;5089868;28;19943;-84
2023/08/17 01:30:28;;;;;;;;;;;15.00;75.80;;;;;;5071345;28;19962;-84
2023/08/17 01:32:56;;;;;;;;;;;15.00;75.70;;;;;;5070832;28;19917;-84
2023/08/17 01:35:32;;;;;;;;;;;15.00;75.70;;;;;;5069196;28;19908;-84
2023/08/17 01:38:03;;;;;;;;;;;15.00;75.70;;;;;;5068715;28;19913;-84
2023/08/17 01:40:32;;;;;;;;;;;15.00;75.70;;;;;;5069318;28;19912;-84
2023/08/17 01:42:57;;;;;;;;;;;15.00;75.70;;;;;;5072426;28;19913;-84
2023/08/17 01:45:24;;;;;;;;;;;15.10;75.80;;;;;;5079988;28;19908;-84
2023/08/17 01:47:49;;;;;;;;;;;15.00;75.70;;;;;;5081139;28;20356;-83
2023/08/17 01:50:15;;;;;;;;;;;15.10;75.70;;;;;;5081677;28;19919;-84
2023/08/17 01:52:41;;;;;;;;;;;15.10;75.70;;;;;;5080000;28;19963;-84
2023/08/17 01:55:06;;;;;;;;;;;15.00;75.60;;;;;;5077632;28;19931;-84
2023/08/17 01:57:32;;;;;;;;;;;15.00;75.60;;;;;;5097792;28;19916;-84
2023/08/17 01:59:57;;;;;;;;;;;15.00;75.60;;;;;;5080920;28;19912;-84
2023/08/17 02:02:23;;;;;;;;;;;15.10;75.70;;;;;;5073342;28;20025;-84
2023/08/17 02:04:49;;;;;;;;;;;15.00;75.60;;;;;;5090441;28;19962;-84
2023/08/17 02:07:14;;;;;;;;;;;15.00;75.70;;;;;;5074325;28;20372;-83
2023/08/17 02:09:40;;;;;;;;;;;14.90;75.70;;;;;;5077364;28;19916;-84
2023/08/17 02:12:05;;;;;;;;;;;14.90;75.70;;;;;;5073705;28;19948;-84
2023/08/17 02:14:31;;;;;;;;;;;14.90;75.70;;;;;;5088577;28;20380;-84
2023/08/17 02:16:56;;;;;;;;;;;14.90;75.80;;;;;;5087743;28;19943;-83
2023/08/17 02:19:22;;;;;;;;;;;14.80;75.80;;;;;;5069938;28;19927;-84
2023/08/17 02:21:48;;;;;;;;;;;14.90;75.90;;;;;;5086908;28;20292;-83
2023/08/17 02:24:13;;;;;;;;;;;14.80;75.90;;;;;;5087120;28;20386;-83
2023/08/17 02:26:39;;;;;;;;;;;14.80;75.90;;;;;;5092891;28;19916;-83
2023/08/17 02:29:05;;;;;;;;;;;14.80;75.90;;;;;;5097659;28;19913;-83
2023/08/17 02:31:31;;;;;;;;;;;14.80;75.90;;;;;;5085844;28;19909;-83
2023/08/17 02:34:00;;;;;;;;;;;14.80;75.90;;;;;;5085086;28;20011;-83
2023/08/17 02:36:26;;;;;;;;;;;14.80;75.90;;;;;;5068328;28;19916;-83
2023/08/17 02:38:52;;;;;;;;;;;14.70;75.90;;;;;;5084713;28;19920;-83
2023/08/17 02:41:17;;;;;;;;;;;14.70;75.90;;;;;;5068262;28;20399;-84
2023/08/17 02:43:43;;;;;;;;;;;14.70;75.90;;;;;;5071284;28;20319;-84
2023/08/17 02:46:09;;;;;;;;;;;14.70;75.90;;;;;;5093901;28;19931;-83
2023/08/17 02:48:35;;;;;;;;;;;14.70;75.90;;;;;;5080307;28;19912;-84
2023/08/17 02:51:00;;;;;;;;;;;14.70;75.90;;;;;;5075798;28;19912;-84
2023/08/17 02:53:26;;;;;;;;;;;14.70;75.80;;;;;;5073739;28;19912;-84
2023/08/17 02:55:51;;;;;;;;;;;14.70;75.80;;;;;;5074398;28;19912;-84
2023/08/17 02:58:17;;;;;;;;;;;14.70;75.80;;;;;;5099646;28;19923;-84
2023/08/17 03:00:43;;;;;;;;;;;14.70;75.80;;;;;;5079857;28;19920;-84
2023/08/17 03:03:08;;;;;;;;;;;14.70;75.80;;;;;;5073681;28;20391;-84
2023/08/17 03:05:34;;;;;;;;;;;14.70;75.80;;;;;;5096363;28;20353;-84
2023/08/17 03:07:59;;;;;;;;;;;14.80;75.70;;;;;;5085445;28;19912;-83
2023/08/17 03:10:25;;;;;;;;;;;14.70;75.70;;;;;;5094624;28;19927;-84
2023/08/17 03:12:51;;;;;;;;;;;14.70;75.70;;;;;;5075902;28;19923;-83
2023/08/17 03:15:16;;;;;;;;;;;14.70;75.70;;;;;;5072474;28;19920;-83
2023/08/17 03:17:42;;;;;;;;;;;14.60;75.70;;;;;;5087280;28;19920;-83
2023/08/17 03:20:07;;;;;;;;;;;14.60;75.80;;;;;;5087051;28;19913;-83
2023/08/17 03:22:33;;;;;;;;;;;14.60;75.80;;;;;;5071802;28;19913;-84
2023/08/17 03:24:59;;;;;;;;;;;14.60;75.90;;;;;;5071038;28;19909;-83
2023/08/17 03:27:24;;;;;;;;;;;14.50;75.90;;;;;;5072003;28;20284;-83
2023/08/17 03:29:51;;;;;;;;;;;14.50;76.40;;;;;;5071245;28;19913;-83
2023/08/17 03:32:16;;;;;;;;;;;14.50;75.90;;;;;;5086217;28;19924;-83
2023/08/17 03:34:42;;;;;;;;;;;14.50;75.90;;;;;;5069833;28;20257;-81
2023/08/17 03:37:07;;;;;;;;;;;14.50;75.90;;;;;;5069128;28;19920;-83
2023/08/17 03:39:33;;;;;;;;;;;14.40;75.80;;;;;;5075248;28;19923;-84
2023/08/17 03:41:58;;;;;;;;;;;14.50;75.90;;;;;;5076988;28;20003;-83
2023/08/17 03:44:24;;;;;;;;;;;14.40;75.80;;;;;;5080073;28;19917;-84
2023/08/17 03:46:49;;;;;;;;;;;14.50;75.90;;;;;;5100797;28;19913;-65
2023/08/17 03:49:16;;;;;;;;;;;14.50;75.90;;;;;;5085056;28;19934;-84
2023/08/17 03:51:42;;;;;;;;;;;14.50;75.90;;;;;;5099516;28;19974;-83
2023/08/17 03:54:07;;;;;;;;;;;14.50;75.90;;;;;;5101362;28;19913;-83
2023/08/17 03:56:33;;;;;;;;;;;14.50;75.90;;;;;;5084965;28;19916;-81
2023/08/17 03:58:58;;;;;;;;;;;14.50;75.80;;;;;;5087502;28;19987;-83
2023/08/17 04:01:24;;;;;;;;;;;14.60;75.90;;;;;;5086232;28;19942;-83
2023/08/17 04:03:50;;;;;;;;;;;14.50;75.80;;;;;;5102770;28;19908;-71
2023/08/17 04:06:15;;;;;;;;;;;14.50;75.80;;;;;;5086539;28;19971;-83
2023/08/17 04:08:41;;;;;;;;;;;14.60;75.80;;;;;;5085314;28;19909;-83
2023/08/17 04:11:06;;;;;;;;;;;14.60;75.80;;;;;;5080638;28;19957;-83
2023/08/17 04:13:32;;;;;;;;;;;14.60;75.80;;;;;;5076822;28;19920;-84
2023/08/17 04:15:57;;;;;;;;;;;14.60;75.80;;;;;;5073359;28;20014;-83
2023/08/17 04:18:23;;;;;;;;;;;14.50;75.80;;;;;;5073491;28;19922;-84
2023/08/17 04:20:49;;;;;;;;;;;14.50;75.80;;;;;;5074104;28;19920;-83
2023/08/17 04:23:15;;;;;;;;;;;14.50;75.90;;;;;;5073889;28;20510;-84
2023/08/17 04:25:40;;;;;;;;;;;14.40;75.80;;;;;;5073414;28;20007;-83
2023/08/17 04:28:06;;;;;;;;;;;14.40;75.80;;;;;;5090505;28;20364;-83
2023/08/17 04:30:31;;;;;;;;;;;14.40;75.90;;;;;;5073195;28;19912;-83
2023/08/17 04:32:57;;;;;;;;;;;14.40;76.00;;;;;;5072653;28;19913;-83
2023/08/17 04:35:22;;;;;;;;;;;14.40;76.00;;;;;;5070735;28;19912;-83
2023/08/17 04:37:48;;;;;;;;;;;14.40;76.00;;;;;;5070772;28;19924;-83
2023/08/17 04:40:14;;;;;;;;;;;14.40;76.00;;;;;;5074583;28;19951;-83
2023/08/17 04:42:39;;;;;;;;;;;14.40;76.00;;;;;;5079677;28;19913;-83
2023/08/17 04:45:05;;;;;;;;;;;14.50;76.00;;;;;;5079063;28;19916;-83
2023/08/17 04:47:31;;;;;;;;;;;14.50;75.90;;;;;;5088295;28;19920;-84
2023/08/17 04:49:56;;;;;;;;;;;14.50;75.90;;;;;;5089375;28;20011;-84
2023/08/17 04:52:22;;;;;;;;;;;14.50;75.90;;;;;;5103738;28;19913;-82
2023/08/17 04:54:48;;;;;;;;;;;14.60;75.90;;;;;;5097390;28;19916;-80
2023/08/17 04:57:13;;;;;;;;;;;14.50;75.90;;;;;;5093949;28;19928;-81
2023/08/17 04:59:40;;;;;;;;;;;14.50;75.90;;;;;;5095277;28;19901;-82
2023/08/17 05:02:05;;;;;;;;;;;14.60;75.90;;;;;;5096165;28;20365;-83
2023/08/17 05:04:31;;;;;;;;;;;14.60;75.90;;;;;;5093989;28;19960;-84
2023/08/17 05:06:56;;;;;;;;;;;14.60;75.90;;;;;;5090300;28;19920;-83
2023/08/17 05:09:22;;;;;;;;;;;14.70;76.00;;;;;;5089731;28;20262;-82
2023/08/17 05:11:48;;;;;;;;;;;14.70;76.00;;;;;;5083965;28;20076;-82
2023/08/17 05:14:13;;;;;;;;;;;14.70;76.00;;;;;;5084812;28;19912;-82
2023/08/17 05:16:39;;;;;;;;;;;14.80;76.00;;;;;;5082431;28;19912;-83
2023/08/17 05:19:04;;;;;;;;;;;14.80;76.00;;;;;;5075366;28;19951;-83
2023/08/17 05:21:30;;;;;;;;;;;14.80;76.00;;;;;;5099312;28;19897;-83
2023/08/17 05:23:56;;;;;;;;;;;14.80;76.00;;;;;;5099892;28;19920;-84
2023/08/17 05:26:22;;;;;;;;;;;14.80;76.00;;;;;;5084516;28;19901;-84
2023/08/17 05:28:47;;;;;;;;;;;14.80;76.00;;;;;;5075940;28;19915;-83
2023/08/17 05:31:13;;;;;;;;;;;14.90;76.10;;;;;;5075530;28;20324;-83
2023/08/17 05:33:40;;;;;;;;;;;14.90;76.10;;;;;;5079359;28;19908;-82
2023/08/17 05:36:06;;;;;;;;;;;14.90;76.10;;;;;;5097542;28;19908;-83
2023/08/17 05:38:32;;;;;;;;;;;14.90;76.10;;;;;;5105374;28;19975;-83
2023/08/17 05:40:58;;;;;;;;;;;15.00;76.20;;;;;;5074878;28;20004;-84
2023/08/17 05:43:24;;;;;;;;;;;15.00;76.20;;;;;;5074161;28;20327;-82
2023/08/17 05:45:50;;;;;;;;;;;15.10;76.20;;;;;;5093210;28;19926;-82
2023/08/17 05:48:15;;;;;;;;;;;15.10;76.20;;;;;;5075044;28;20292;-83
2023/08/17 05:50:41;;;;;;;;;;;15.20;76.20;;;;;;5070126;28;19909;-65
2023/08/17 05:53:07;;;;;;;;;;;15.20;76.20;;;;;;5069325;28;19920;-65
2023/08/17 05:55:32;;;;;;;;;;;15.30;76.30;;;;;;5069329;28;19916;-63
2023/08/17 05:57:58;;;;;;;;;;;15.30;76.30;;;;;;5071127;28;19913;-83
2023/08/17 06:00:24;;;;;;;;;;;15.40;76.40;;;;;;5094846;28;20257;-84
2023/08/17 06:02:51;;;;;;;;;;;15.40;76.40;;;;;;5080150;28;20321;-78
2023/08/17 06:05:22;;;;;;;;;;;15.50;76.40;;;;;;5099064;28;20299;-83
2023/08/17 06:07:48;;;;;;;;;;;15.50;76.40;;;;;;5082136;28;19921;-83
2023/08/17 06:10:13;;;;;;;;;;;15.60;76.40;;;;;;5077123;28;19986;-83
2023/08/17 06:12:39;;;;;;;;;;;15.70;76.40;;;;;;5072428;28;19913;-83
2023/08/17 06:15:05;;;;;;;;;;;15.70;76.30;;;;;;5073005;28;19916;-85
2023/08/17 06:17:30;;;;;;;;;;;15.80;76.30;;;;;;5111831;22;19917;-64
2023/08/17 06:19:56;;;;;;;;;;;15.80;76.30;;;;;;5089050;28;19924;-68
2023/08/17 06:22:21;;;;;;;;;;;15.90;76.40;;;;;;5090015;28;19922;-84
2023/08/17 06:24:47;;;;;;;;;;;15.90;76.40;;;;;;5076385;28;19911;-84
2023/08/17 06:27:16;;;;;;;;;;;16.00;76.50;;;;;;5093814;28;20015;-82
2023/08/17 06:29:41;;;;;;;;;;;16.10;76.30;;;;;;5087367;28;19959;-82
2023/08/17 06:32:08;;;;;;;;;;;16.20;76.30;;;;;;5070506;28;20015;-83
2023/08/17 06:34:33;;;;;;;;;;;16.20;76.30;;;;;;5070865;28;19916;-82
2023/08/17 06:37:00;;;;;;;;;;;16.30;76.40;;;;;;5070258;28;19916;-83
2023/08/17 06:39:25;;;;;;;;;;;16.30;76.40;;;;;;5087327;28;19920;-83
2023/08/17 06:41:51;;;;;;;;;;;16.40;76.50;;;;;;5087101;28;20332;-83
2023/08/17 06:44:16;;;;;;;;;;;16.50;76.40;;;;;;5087225;28;19923;-83
2023/08/17 06:46:42;;;;;;;;;;;16.50;76.40;;;;;;5088722;28;19913;-82
2023/08/17 06:49:08;;;;;;;;;;;16.60;76.50;;;;;;5070574;28;19912;-83
2023/08/17 06:51:34;;;;;;;;;;;16.70;76.50;;;;;;5070647;28;19916;-82
2023/08/17 06:53:59;;;;;;;;;;;16.80;76.50;;;;;;5070039;28;20449;-82
2023/08/17 06:56:25;;;;;;;;;;;16.90;76.50;;;;;;5069999;28;19942;-82
2023/08/17 06:58:51;;;;;;;;;;;17.00;76.40;;;;;;5086190;28;19972;-83
2023/08/17 07:01:16;;;;;;;;;;;17.10;76.40;;;;;;5070061;28;19916;-83
2023/08/17 07:03:42;;;;;;;;;;;17.20;76.50;;;;;;5070765;28;19912;-79
2023/08/17 07:06:08;;;;;;;;;;;17.20;76.40;;;;;;5070966;28;19912;-83
2023/08/17 07:08:34;;;;;;;;;;;17.40;76.50;;;;;;5088103;28;19909;-80
2023/08/17 07:10:59;;;;;;;;;;;17.50;76.50;;;;;;5087508;28;20398;-78
2023/08/17 07:13:25;;;;;;;;;;;17.60;76.50;;;;;;5079845;28;19913;-79
2023/08/17 07:15:50;;;;;;;;;;;17.70;76.50;;;;;;5089022;28;20280;-79
2023/08/17 07:18:16;;;;;;;;;;;17.80;76.50;;;;;;5070117;28;19981;-80
2023/08/17 07:20:41;;;;;;;;;;;18.00;76.60;;;;;;5070404;28;20336;-80
2023/08/17 07:23:07;;;;;;;;;;;18.50;77.60;;;;;;5087372;28;19912;-81
2023/08/17 07:25:33;;;;;;;;;;;19.90;77.90;;;;;;5086852;28;19943;-80
2023/08/17 07:27:58;;;;;;;;;;;21.10;76.70;;;;;;5070022;28;19912;-79
2023/08/17 07:30:24;;;;;;;;;;;21.60;75.10;;;;;;5070515;28;19936;-81
2023/08/17 07:32:50;;;;;;;;;;;21.30;74.70;;;;;;5087056;28;20355;-81
2023/08/17 07:35:15;;;;;;;;;;;20.90;75.10;;;;;;5070445;28;20003;-80
2023/08/17 07:37:41;;;;;;;;;;;20.70;75.60;;;;;;5087301;28;20396;-79
2023/08/17 07:40:07;;;;;;;;;;;20.50;76.00;;;;;;5070945;28;19962;-80
2023/08/17 07:42:33;;;;;;;;;;;21.00;77.90;;;;;;5087199;28;19916;-81
2023/08/17 07:44:58;;;;;;;;;;;22.20;78.00;;;;;;5086820;28;19908;-80
2023/08/17 07:47:24;;;;;;;;;;;23.80;77.30;;;;;;5086938;28;20029;-80
2023/08/17 07:49:49;;;;;;;;;;;25.00;76.30;;;;;;5088710;28;19938;-79
2023/08/17 07:52:15;;;;;;;;;;;25.50;75.50;;;;;;5071755;28;19975;-79
2023/08/17 07:54:41;;;;;;;;;;;25.70;75.50;;;;;;5089879;28;19912;-81
2023/08/17 07:57:07;;;;;;;;;;;25.90;76.00;;;;;;5071545;28;19913;-79
2023/08/17 07:59:32;;;;;;;;;;;26.10;76.20;;;;;;5087835;28;19954;-79
2023/08/17 08:01:58;;;;;;;;;;;26.60;76.40;;;;;;5089556;28;20380;-80
2023/08/17 08:04:23;;;;;;;;;;;27.00;76.00;;;;;;5071619;28;19939;-79
2023/08/17 08:06:49;;;;;;;;;;;27.10;76.00;;;;;;5088405;28;19970;-78
2023/08/17 08:09:14;;;;;;;;;;;27.30;76.50;;;;;;5088086;28;20382;-80
2023/08/17 08:11:40;;;;;;;;;;;27.40;76.70;;;;;;5071038;28;19957;-78
2023/08/17 08:14:06;;;;;;;;;;;27.60;76.90;;;;;;5087394;28;19908;-78
2023/08/17 08:16:31;;;;;;;;;;;27.90;76.80;;;;;;5070971;28;19956;-79
2023/08/17 08:18:57;;;;;;;;;;;28.10;76.90;;;;;;5087302;28;19947;-80
2023/08/17 08:21:22;;;;;;;;;;;28.40;77.10;;;;;;5070901;28;19919;-80
2023/08/17 08:23:48;;;;;;;;;;;28.80;77.50;;;;;;5090511;28;19923;-80
2023/08/17 08:26:14;;;;;;;;;;;29.20;77.30;;;;;;5089477;28;19970;-80
2023/08/17 08:28:39;;;;;;;;;;;29.30;77.70;;;;;;5089627;28;19919;-81
2023/08/17 08:31:05;;;;;;;;;;;29.80;78.10;;;;;;5090603;28;20245;-79
2023/08/17 08:33:31;;;;;;;;;;;30.30;78.00;;;;;;5073986;28;20323;-80
2023/08/17 08:35:56;;;;;;;;;;;30.40;77.70;;;;;;5089786;28;19923;-80
2023/08/17 08:38:22;;;;;;;;;;;30.60;78.60;;;;;;5089855;28;19916;-79
2023/08/17 08:40:48;;;;;;;;;;;31.00;79.00;;;;;;5089914;28;19908;-79
2023/08/17 08:43:17;;;;;;;;;;;31.40;78.30;;;;;;5090861;28;19908;-80
2023/08/17 08:45:44;;;;;;;;;;;31.30;78.40;;;;;;5072521;28;20002;-80
2023/08/17 08:48:11;;;;;;;;;;;31.50;78.80;;;;;;5089433;28;20410;-79
2023/08/17 08:50:39;;;;;;;;;;;31.80;78.90;;;;;;5075966;28;19916;-79
2023/08/17 08:53:08;;;;;;;;;;;31.80;78.80;;;;;;5089690;28;20306;-79
2023/08/17 08:55:36;;;;;;;;;;;31.80;78.80;;;;;;5089490;28;20002;-80
2023/08/17 08:58:04;;;;;;;;;;;31.90;79.10;;;;;;5089673;28;19955;-79
2023/08/17 09:00:29;;;;;;;;;;;32.20;79.40;;;;;;5092322;28;19973;-78
2023/08/17 09:02:55;;;;;;;;;;;32.60;79.50;;;;;;5090872;28;20256;-78
2023/08/17 09:05:21;;;;;;;;;;;32.70;79.30;;;;;;5090900;28;19912;-79
2023/08/17 09:07:48;;;;;;;;;;;32.80;79.30;;;;;;5093560;28;19908;-79
2023/08/17 09:10:16;;;;;;;;;;;32.70;79.00;;;;;;5092593;28;19908;-77
2023/08/17 09:12:41;;;;;;;;;;;32.40;79.50;;;;;;5061866;28;19917;-77
2023/08/17 09:15:07;;;;;;;;;;;32.20;79.60;;;;;;5082151;28;19989;-77
2023/08/17 09:17:36;;;;;;;;;;;32.30;79.90;;;;;;5091353;28;19909;-77
2023/08/17 09:20:02;;;;;;;;;;;32.10;79.80;;;;;;5091878;28;19961;-76
2023/08/17 09:22:39;;;;;;;;;;;31.90;79.50;;;;;;5090177;28;19912;-77
2023/08/17 09:25:05;;;;;;;;;;;31.80;80.20;;;;;;5091458;28;20280;-77
2023/08/17 09:27:34;;;;;;;;;;;31.60;79.60;;;;;;5089939;28;20318;-77
2023/08/17 09:30:04;;;;;;;;;;;31.70;80.00;;;;;;5073479;28;19916;-77
2023/08/17 09:32:30;;;;;;;;;;;32.00;80.00;;;;;;5091468;28;19928;-77
2023/08/17 09:34:55;;;;;;;;;;;32.40;79.70;;;;;;5072886;28;19966;-78
2023/08/17 09:37:21;;;;;;;;;;;32.20;78.50;;;;;;5072791;28;20264;-77
2023/08/17 09:39:46;;;;;;;;;;;31.40;77.90;;;;;;5069764;28;19971;-79
2023/08/17 09:42:12;;;;;;;;;;;31.20;79.20;;;;;;5069998;28;19912;-80
2023/08/17 09:44:38;;;;;;;;;;;31.60;79.90;;;;;;5072301;28;19958;-81
2023/08/17 09:47:05;;;;;;;;;;;32.30;80.00;;;;;;5073032;28;19916;-80
2023/08/17 09:49:33;;;;;;;;;;;32.90;79.50;;;;;;5089335;28;20387;-80
2023/08/17 09:52:00;;;;;;;;;;;33.20;79.20;;;;;;5089625;28;19931;-81
2023/08/17 09:54:26;;;;;;;;;;;33.40;79.00;;;;;;5091636;28;19912;-80
2023/08/17 09:56:53;;;;;;;;;;;33.20;78.90;;;;;;5090078;28;19922;-80
2023/08/17 09:59:18;;;;;;;;;;;33.00;78.70;;;;;;5089148;28;19969;-79
2023/08/17 10:01:46;;;;;;;;;;;32.60;78.30;;;;;;5090098;28;19913;-81
2023/08/17 10:04:12;;;;;;;;;;;31.70;78.30;;;;;;5090077;28;19914;-76
2023/08/17 10:06:39;;;;;;;;;;;31.20;78.70;;;;;;5090599;28;19916;-79
2023/08/17 10:09:06;;;;;;;;;;;30.90;78.90;;;;;;5091389;28;19935;-81
2023/08/17 10:11:35;;;;;;;;;;;31.10;79.50;;;;;;5090992;28;19912;-83
2023/08/17 10:14:02;;;;;;;;;;;31.50;79.60;;;;;;5091561;28;19909;-83
2023/08/17 10:16:40;;;;;;;;;;;32.20;79.60;;;;;;5089590;28;19908;-81
2023/08/17 10:19:12;;;;;;;;;;;32.70;79.50;;;;;;5090195;28;19920;-78
2023/08/17 10:21:42;;;;;;;;;;;32.80;79.10;;;;;;5089120;28;19912;-83
2023/08/17 10:24:08;;;;;;;;;;;32.40;79.50;;;;;;5091369;28;20389;-82
2023/08/17 10:26:33;;;;;;;;;;;32.30;79.30;;;;;;5089775;28;19913;-82
2023/08/17 10:29:01;;;;;;;;;;;32.10;79.60;;;;;;5089283;28;19912;-81
2023/08/17 10:31:27;;;;;;;;;;;32.20;79.60;;;;;;5073396;28;19916;-82
2023/08/17 10:33:52;;;;;;;;;;;32.00;79.20;;;;;;5090525;28;20305;-75
2023/08/17 10:36:19;;;;;;;;;;;31.90;79.90;;;;;;5089464;28;19912;-79
2023/08/17 10:38:44;;;;;;;;;;;32.00;80.10;;;;;;5088932;28;19920;-80
2023/08/17 10:41:14;;;;;;;;;;;32.10;80.00;;;;;;5071936;28;20077;-84
2023/08/17 10:43:55;;;;;;;;;;;32.20;79.80;;;;;;5072496;28;19916;-85
2023/08/17 10:46:20;;;;;;;;;;;32.00;79.50;;;;;;5089748;28;19960;-80
2023/08/17 10:48:46;;;;;;;;;;;32.10;80.30;;;;;;5070792;28;19912;-77
2023/08/17 10:51:16;;;;;;;;;;;32.40;80.60;;;;;;5088901;28;19909;-81
2023/08/17 10:53:43;;;;;;;;;;;33.10;80.80;;;;;;5089993;28;19912;-79
2023/08/17 10:56:13;;;;;;;;;;;33.60;80.50;;;;;;5089961;28;19999;-85
2023/08/17 10:58:40;;;;;;;;;;;34.00;80.00;;;;;;5091324;28;19916;-84
2023/08/17 11:01:07;;;;;;;;;;;34.40;79.50;;;;;;5088886;28;20005;-83
2023/08/17 11:03:33;;;;;;;;;;;34.20;78.60;;;;;;5070780;28;19912;-83
2023/08/17 11:06:13;;;;;;;;;;;34.00;78.90;;;;;;5078266;28;19974;-83
2023/08/17 11:08:42;;;;;;;;;;;34.20;79.40;;;;;;5068537;28;19931;-83
2023/08/17 11:11:12;;;;;;;;;;;34.30;79.40;;;;;;5085553;28;19912;-80
2023/08/17 11:13:38;;;;;;;;;;;34.30;79.40;;;;;;5069343;28;20353;-79
2023/08/17 11:16:04;;;;;;;;;;;34.50;79.70;;;;;;5068304;28;20248;-80
2023/08/17 11:18:30;;;;;;;;;;;35.00;79.90;;;;;;5084144;28;20308;-75
2023/08/17 11:20:56;;;;;;;;;;;35.30;79.70;;;;;;5069104;28;19962;-80
2023/08/17 11:23:22;;;;;;;;;;;35.50;79.10;;;;;;5067776;28;19909;-81
2023/08/17 11:25:48;;;;;;;;;;;35.50;79.60;;;;;;5068390;28;19968;-83
2023/08/17 11:28:14;;;;;;;;;;;35.60;79.40;;;;;;5084165;28;20023;-78
2023/08/17 11:30:41;;;;;;;;;;;35.30;79.30;;;;;;5068505;28;19969;-80
2023/08/17 11:33:08;;;;;;;;;;;35.40;79.60;;;;;;5068469;28;19918;-79
2023/08/17 11:35:33;;;;;;;;;;;35.30;79.30;;;;;;5067588;28;19913;-80
2023/08/17 11:37:59;;;;;;;;;;;34.90;78.70;;;;;;5084910;28;19919;-81
2023/08/17 11:40:25;;;;;;;;;;;34.70;79.60;;;;;;5067678;28;20047;-80
2023/08/17 11:42:51;;;;;;;;;;;35.00;79.80;;;;;;5087037;28;19912;-70
2023/08/17 11:45:18;;;;;;;;;;;35.10;79.40;;;;;;5087827;28;19915;-79
2023/08/17 11:47:43;;;;;;;;;;;35.00;78.90;;;;;;5088826;28;20289;-81
2023/08/17 11:50:10;;;;;;;;;;;34.20;78.80;;;;;;5087979;28;19916;-77
2023/08/17 11:52:38;;;;;;;;;;;33.60;78.70;;;;;;5088062;28;20003;-76
2023/08/17 11:55:05;;;;;;;;;;;32.70;77.80;;;;;;5088932;28;19968;-81
2023/08/17 11:57:31;;;;;;;;;;;31.80;78.00;;;;;;5090923;28;19931;-81
2023/08/17 11:59:58;;;;;;;;;;;31.10;78.40;;;;;;5092546;28;19962;-81
2023/08/17 12:02:24;;;;;;;;;;;30.60;78.30;;;;;;5093741;28;20011;-83
2023/08/17 12:04:50;;;;;;;;;;;29.80;78.30;;;;;;5091361;28;19952;-82
2023/08/17 12:07:19;;;;;;;;;;;29.20;78.60;;;;;;5092190;28;19908;-81
2023/08/17 12:09:47;;;;;;;;;;;28.80;79.20;;;;;;5091846;28;19955;-80
2023/08/17 12:12:16;;;;;;;;;;;28.60;79.20;;;;;;5093013;28;19920;-81
2023/08/17 12:14:45;;;;;;;;;;;28.50;79.10;;;;;;5096266;28;19919;-82
2023/08/17 12:17:15;;;;;;;;;;;28.50;79.60;;;;;;5091994;28;19999;-68
2023/08/17 12:19:40;;;;;;;;;;;28.50;78.80;;;;;;5093386;28;19920;-82
2023/08/17 12:22:06;;;;;;;;;;;28.50;79.10;;;;;;5092880;28;19922;-82
2023/08/17 12:24:32;;;;;;;;;;;28.70;79.40;;;;;;5092667;28;19912;-82
2023/08/17 12:26:58;;;;;;;;;;;29.00;79.20;;;;;;5092755;28;19912;-81
2023/08/17 12:29:24;;;;;;;;;;;29.10;78.70;;;;;;5108031;28;20386;-78
2023/08/17 12:31:51;;;;;;;;;;;29.40;79.50;;;;;;5092071;28;19950;-76
2023/08/17 12:34:16;;;;;;;;;;;30.00;79.30;;;;;;5092396;28;19923;-76
2023/08/17 12:36:45;;;;;;;;;;;30.40;78.50;;;;;;5090476;28;19912;-79
2023/08/17 12:39:11;;;;;;;;;;;30.30;77.80;;;;;;5091001;28;19958;-79
2023/08/17 12:41:37;;;;;;;;;;;30.00;77.50;;;;;;5108041;28;19916;-77
2023/08/17 12:44:02;;;;;;;;;;;29.60;77.40;;;;;;5092063;28;19912;-76
2023/08/17 12:46:32;;;;;;;;;;;29.10;77.20;;;;;;5090009;28;20332;-75
2023/08/17 12:48:59;;;;;;;;;;;28.70;77.50;;;;;;5089435;28;19916;-76
2023/08/17 12:51:24;;;;;;;;;;;28.40;77.90;;;;;;5091609;28;20271;-78
2023/08/17 12:53:50;;;;;;;;;;;28.40;78.30;;;;;;5091714;28;19912;-78
2023/08/17 12:56:15;;;;;;;;;;;28.50;78.60;;;;;;5091916;28;19940;-77
2023/08/17 12:58:41;;;;;;;;;;;28.70;78.40;;;;;;5090141;28;19970;-76
2023/08/17 13:01:06;;;;;;;;;;;28.70;78.00;;;;;;5091787;28;19912;-74
2023/08/17 13:03:32;;;;;;;;;;;28.70;77.90;;;;;;5090668;28;20028;-80
2023/08/17 13:05:58;;;;;;;;;;;28.60;77.50;;;;;;5090353;28;20371;-81
2023/08/17 13:08:23;;;;;;;;;;;28.30;77.50;;;;;;5073231;28;19985;-77
2023/08/17 13:10:49;;;;;;;;;;;28.30;78.00;;;;;;5091508;28;19916;-77
2023/08/17 13:13:14;;;;;;;;;;;28.40;78.20;;;;;;5091052;28;20005;-70
2023/08/17 13:15:41;;;;;;;;;;;28.60;78.00;;;;;;5091390;28;20337;-77
2023/08/17 13:18:07;;;;;;;;;;;28.50;77.80;;;;;;5090236;28;19931;-74
2023/08/17 13:20:33;;;;;;;;;;;28.60;78.00;;;;;;5090077;28;19930;-79
2023/08/17 13:22:58;;;;;;;;;;;28.70;78.50;;;;;;5090882;28;20019;-77
2023/08/17 13:25:24;;;;;;;;;;;28.90;78.30;;;;;;5091322;28;19908;-77
2023/08/17 13:27:50;;;;;;;;;;;28.90;78.00;;;;;;5090966;28;19994;-73
2023/08/17 13:30:15;;;;;;;;;;;28.90;78.20;;;;;;5088605;28;20019;-77
2023/08/17 13:32:41;;;;;;;;;;;29.20;78.60;;;;;;5080141;28;19912;-75
2023/08/17 13:35:07;;;;;;;;;;;29.30;78.20;;;;;;5088842;28;19920;-75
2023/08/17 13:37:32;;;;;;;;;;;29.20;77.80;;;;;;5077403;28;19923;-75
2023/08/17 13:39:58;;;;;;;;;;;29.00;77.40;;;;;;5079648;28;20333;-76
2023/08/17 13:42:24;;;;;;;;;;;28.70;76.80;;;;;;5076051;28;19939;-76
2023/08/17 13:44:49;;;;;;;;;;;28.40;76.80;;;;;;5075986;28;19916;-70
2023/08/17 13:47:15;;;;;;;;;;;28.10;76.60;;;;;;5081754;28;19955;-76
2023/08/17 13:49:41;;;;;;;;;;;27.70;76.60;;;;;;5076092;28;19920;-75
2023/08/17 13:52:06;;;;;;;;;;;27.50;76.90;;;;;;5078106;28;19917;-75
2023/08/17 13:54:32;;;;;;;;;;;27.30;76.70;;;;;;5079559;28;20368;-76
2023/08/17 13:56:58;;;;;;;;;;;27.10;77.00;;;;;;5079416;28;19957;-77
2023/08/17 13:59:23;;;;;;;;;;;27.10;77.10;;;;;;5086567;28;20007;-76
2023/08/17 14:01:49;;;;;;;;;;;27.00;76.90;;;;;;5089908;28;19916;-75
2023/08/17 14:04:15;;;;;;;;;;;26.90;76.80;;;;;;5088792;28;19926;-74
2023/08/17 14:06:40;;;;;;;;;;;26.90;76.80;;;;;;5088425;28;19947;-77
2023/08/17 14:09:06;;;;;;;;;;;26.90;76.70;;;;;;5088259;28;19962;-76
2023/08/17 14:11:32;;;;;;;;;;;26.90;76.80;;;;;;5088598;28;19923;-79